sensor_id;sensor_type;location;lat;lon;timestamp;pressure;altitude;pressure_sealevel;temperature;humidity
3464;BME280;3551;41.578;24.706;2024-02-26T06:05:39;90852.56;;;7.47;100.00
3464;BME280;3551;41.578;24.706;2024-02-26T06:11:47;90811.91;;;7.29;100.00
3464;BME280;3551;41.578;24.706;2024-02-26T06:15:14;90807.31;;;7.61;100.00
3464;BME280;3551;41.578;24.706;2024-02-26T06:18:04;90821.38;;;7.55;100.00
3464;BME280;3551;41.578;24.706;2024-02-26T06:20:56;90795.53;;;7.55;100.00
3464;BME280;3551;41.578;24.706;2024-02-26T06:23:53;90833.91;;;7.68;100.00
3464;BME280;3551;41.578;24.706;2024-02-26T06:26:33;90867.34;;;8.01;100.00
3464;BME280;3551;41.578;24.706;2024-02-26T06:29:13;90811.13;;;7.57;100.00
3464;BME280;3551;41.578;24.706;2024-02-26T06:31:47;90822.09;;;7.94;100.00
3464;BME280;3551;41.578;24.706;2024-02-26T06:34:26;90866.19;;;8.09;100.00
3464;BME280;3551;41.578;24.706;2024-02-26T06:37:04;90824.78;;;7.83;100.00
3464;BME280;3551;41.578;24.706;2024-02-26T06:39:33;90849.06;;;8.14;100.00
3464;BME280;3551;41.578;24.706;2024-02-26T06:42:09;90838.41;;;8.17;100.00
3464;BME280;3551;41.578;24.706;2024-02-26T06:44:58;90819.09;;;7.74;100.00
3464;BME280;3551;41.578;24.706;2024-02-26T06:47:33;90803.47;;;7.83;100.00
3464;BME280;3551;41.578;24.706;2024-02-26T06:50:36;90861.63;;;8.03;100.00
3464;BME280;3551;41.578;24.706;2024-02-26T06:56:48;90855.13;;;8.32;100.00
3464;BME280;3551;41.578;24.706;2024-02-26T06:59:30;90821.31;;;8.04;100.00
3464;BME280;3551;41.578;24.706;2024-02-26T07:05:22;90846.78;;;8.19;100.00
3464;BME280;3551;41.578;24.706;2024-02-26T07:10:55;90833.47;;;8.09;100.00
3464;BME280;3551;41.578;24.706;2024-02-26T07:17:40;90823.94;;;8.18;100.00
3464;BME280;3551;41.578;24.706;2024-02-26T07:53:05;90831.28;;;8.90;100.00
3464;BME280;3551;41.578;24.706;2024-02-26T08:21:22;90796.59;;;9.52;100.00
3464;BME280;3551;41.578;24.706;2024-02-26T08:24:07;90797.69;;;9.58;100.00
3464;BME280;3551;41.578;24.706;2024-02-26T08:26:45;90807.22;;;9.59;100.00
3464;BME280;3551;41.578;24.706;2024-02-26T08:29:26;90782.56;;;9.45;100.00
3464;BME280;3551;41.578;24.706;2024-02-26T08:40:00;90773.56;;;9.69;100.00
3464;BME280;3551;41.578;24.706;2024-02-26T08:45:18;90792.31;;;10.06;100.00
3464;BME280;3551;41.578;24.706;2024-02-26T08:51:05;90832.59;;;10.26;100.00
3464;BME280;3551;41.578;24.706;2024-02-26T08:53:33;90810.94;;;10.10;100.00
3464;BME280;3551;41.578;24.706;2024-02-26T08:56:05;90841.19;;;10.44;100.00
3464;BME280;3551;41.578;24.706;2024-02-26T08:58:36;90805.31;;;10.42;100.00
3464;BME280;3551;41.578;24.706;2024-02-26T09:01:06;90842.88;;;10.65;100.00
3464;BME280;3551;41.578;24.706;2024-02-26T09:03:46;90881.41;;;10.71;100.00
3464;BME280;3551;41.578;24.706;2024-02-26T09:06:16;90817.75;;;10.55;100.00
3464;BME280;3551;41.578;24.706;2024-02-26T09:08:53;90864.53;;;10.74;100.00
3464;BME280;3551;41.578;24.706;2024-02-26T09:11:59;90854.56;;;10.78;100.00
3464;BME280;3551;41.578;24.706;2024-02-26T09:14:42;90838.78;;;10.87;100.00
3464;BME280;3551;41.578;24.706;2024-02-26T09:17:55;90858.44;;;11.04;100.00
3464;BME280;3551;41.578;24.706;2024-02-26T09:30:59;90790.00;;;10.76;100.00
3464;BME280;3551;41.578;24.706;2024-02-26T09:33:51;90825.81;;;10.86;100.00
3464;BME280;3551;41.578;24.706;2024-02-26T09:36:37;90865.81;;;10.96;100.00
3464;BME280;3551;41.578;24.706;2024-02-26T09:42:13;90854.22;;;11.33;100.00
3464;BME280;3551;41.578;24.706;2024-02-26T09:44:45;90809.34;;;11.17;100.00
3464;BME280;3551;41.578;24.706;2024-02-26T09:47:38;90831.56;;;11.14;100.00
3464;BME280;3551;41.578;24.706;2024-02-26T09:50:21;90847.13;;;11.50;100.00
3464;BME280;3551;41.578;24.706;2024-02-26T09:53:21;90834.09;;;11.52;100.00
3464;BME280;3551;41.578;24.706;2024-02-26T09:56:12;90778.78;;;11.15;100.00
3464;BME280;3551;41.578;24.706;2024-02-26T09:58:43;90814.25;;;11.49;100.00
3464;BME280;3551;41.578;24.706;2024-02-26T10:01:26;90769.59;;;11.16;100.00
3464;BME280;3551;41.578;24.706;2024-02-26T10:04:01;90797.47;;;11.18;100.00
3464;BME280;3551;41.578;24.706;2024-02-26T10:06:47;90811.19;;;11.74;100.00
3464;BME280;3551;41.578;24.706;2024-02-26T10:09:16;90786.00;;;11.68;100.00
3464;BME280;3551;41.578;24.706;2024-02-26T10:11:45;90819.66;;;11.72;100.00
3464;BME280;3551;41.578;24.706;2024-02-26T10:14:19;90790.16;;;11.49;100.00
3464;BME280;3551;41.578;24.706;2024-02-26T10:17:16;90788.03;;;11.10;100.00
3464;BME280;3551;41.578;24.706;2024-02-26T10:19:49;90799.59;;;11.30;100.00
3464;BME280;3551;41.578;24.706;2024-02-26T10:22:24;90775.22;;;11.48;100.00
3464;BME280;3551;41.578;24.706;2024-02-26T10:24:53;90755.91;;;11.37;100.00
3464;BME280;3551;41.578;24.706;2024-02-26T10:27:22;90802.97;;;11.61;100.00
3464;BME280;3551;41.578;24.706;2024-02-26T10:30:20;90791.63;;;11.77;100.00
3464;BME280;3551;41.578;24.706;2024-02-26T10:33:03;90825.13;;;11.89;100.00
3464;BME280;3551;41.578;24.706;2024-02-26T10:35:39;90737.56;;;11.36;100.00
3464;BME280;3551;41.578;24.706;2024-02-26T10:38:14;90717.66;;;11.60;100.00
3464;BME280;3551;41.578;24.706;2024-02-26T10:42:09;90756.53;;;11.68;100.00
3464;BME280;3551;41.578;24.706;2024-02-26T10:44:34;90754.25;;;11.93;100.00
3464;BME280;3551;41.578;24.706;2024-02-26T10:47:09;90776.53;;;12.10;100.00
3464;BME280;3551;41.578;24.706;2024-02-26T10:49:47;90710.22;;;11.71;100.00
3464;BME280;3551;41.578;24.706;2024-02-26T10:52:36;90739.78;;;11.64;100.00
3464;BME280;3551;41.578;24.706;2024-02-26T10:55:06;90766.47;;;11.94;100.00
3464;BME280;3551;41.578;24.706;2024-02-26T10:57:40;90773.50;;;11.38;100.00
3464;BME280;3551;41.578;24.706;2024-02-26T11:00:14;90763.59;;;11.35;100.00
3464;BME280;3551;41.578;24.706;2024-02-26T11:02:53;90738.31;;;11.36;100.00
3464;BME280;3551;41.578;24.706;2024-02-26T11:05:22;90776.22;;;11.35;100.00
3464;BME280;3551;41.578;24.706;2024-02-26T11:12:11;90757.19;;;11.52;100.00
3464;BME280;3551;41.578;24.706;2024-02-26T11:14:53;90725.94;;;11.46;100.00
3464;BME280;3551;41.578;24.706;2024-02-26T11:17:28;90756.97;;;11.43;100.00
3464;BME280;3551;41.578;24.706;2024-02-26T11:19:59;90775.44;;;11.61;100.00
3464;BME280;3551;41.578;24.706;2024-02-26T11:22:29;90785.66;;;11.69;100.00
3464;BME280;3551;41.578;24.706;2024-02-26T13:23:36;90717.56;;;11.67;58.60
3464;BME280;3551;41.578;24.706;2024-02-26T14:44:00;90749.19;;;10.72;57.03
3464;BME280;3551;41.578;24.706;2024-02-26T14:46:33;90760.69;;;10.69;57.38
3464;BME280;3551;41.578;24.706;2024-02-26T15:07:15;90825.69;;;10.96;57.92
3464;BME280;3551;41.578;24.706;2024-02-26T15:10:10;90767.69;;;10.59;58.20
3464;BME280;3551;41.578;24.706;2024-02-26T15:13:26;90787.47;;;10.65;58.23
3464;BME280;3551;41.578;24.706;2024-02-26T15:16:01;90808.41;;;11.01;58.01
3464;BME280;3551;41.578;24.706;2024-02-26T15:18:33;90791.19;;;10.71;58.02
3464;BME280;3551;41.578;24.706;2024-02-26T15:21:01;90802.41;;;10.93;58.52
